createdAt,value
2023-04-15T00:01:48.532Z,6.88
2023-04-15T00:04:51.274Z,7.85
2023-04-15T00:07:53.954Z,7.67
2023-04-15T00:10:56.653Z,8.20
2023-04-15T00:13:59.476Z,8.32
2023-04-15T00:17:02.087Z,9.18
2023-04-15T00:20:06.514Z,11.23
2023-04-15T00:23:09.540Z,9.13
2023-04-15T00:26:12.870Z,8.70
2023-04-15T00:29:16.594Z,9.60
2023-04-15T00:32:19.222Z,8.88
2023-04-15T00:35:21.929Z,8.63
2023-04-15T00:38:26.392Z,11.07
2023-04-15T00:41:29.941Z,9.47
2023-04-15T00:44:33.696Z,9.60
2023-04-15T00:47:37.917Z,8.07
2023-04-15T00:50:40.578Z,8.63
2023-04-15T00:53:43.845Z,9.57
2023-04-15T00:56:46.835Z,9.83
2023-04-15T00:59:49.428Z,9.55
2023-04-15T01:02:52.163Z,10.98
2023-04-15T01:05:58.500Z,10.88
2023-04-15T01:09:01.829Z,11.90
2023-04-15T01:12:05.922Z,12.70
2023-04-15T01:15:11.147Z,12.95
2023-04-15T01:18:14.742Z,12.43
2023-04-15T01:21:17.300Z,15.70
2023-04-15T01:24:19.894Z,12.47
2023-04-15T01:27:22.884Z,14.30
2023-04-15T01:30:27.053Z,11.77
2023-04-15T01:33:29.938Z,15.93
2023-04-15T01:36:32.740Z,14.48
2023-04-15T01:39:35.587Z,12.07
2023-04-15T01:42:38.558Z,13.47
2023-04-15T01:45:41.876Z,16.52
2023-04-15T01:48:44.455Z,13.02
2023-04-15T01:51:47.010Z,13.50
2023-04-15T01:54:49.577Z,13.80
2023-04-15T01:57:52.598Z,13.40
2023-04-15T02:00:57.353Z,12.80
2023-04-15T02:03:59.989Z,11.77
2023-04-15T02:07:02.591Z,12.23
2023-04-15T02:10:05.370Z,11.57
2023-04-15T02:13:08.022Z,12.03
2023-04-15T02:16:18.145Z,13.30
2023-04-15T02:19:20.796Z,11.35
2023-04-15T02:22:23.362Z,13.35
2023-04-15T02:25:25.881Z,10.47
2023-04-15T02:28:28.578Z,11.57
2023-04-15T02:31:34.208Z,10.98
2023-04-15T02:34:38.526Z,11.65
2023-04-15T02:37:43.851Z,12.30
2023-04-15T02:40:49.778Z,12.50
2023-04-15T02:43:52.468Z,12.83
2023-04-15T02:46:55.115Z,11.65
2023-04-15T02:49:58.772Z,13.07
2023-04-15T02:53:02.707Z,11.73
2023-04-15T02:56:06.203Z,12.30
2023-04-15T02:59:08.750Z,9.67
2023-04-15T03:02:11.709Z,10.65
2023-04-15T03:05:14.695Z,11.30
2023-04-15T03:08:26.323Z,11.25
2023-04-15T03:11:30.029Z,13.57
2023-04-15T03:14:32.664Z,12.43
2023-04-15T03:17:35.843Z,12.80
2023-04-15T03:20:38.768Z,12.15
2023-04-15T03:23:41.458Z,12.60
2023-04-15T03:26:44.136Z,14.17
2023-04-15T03:29:50.695Z,14.10
2023-04-15T03:32:54.218Z,16.63
2023-04-15T03:35:57.014Z,12.90
2023-04-15T03:39:00.093Z,14.52
2023-04-15T03:42:03.567Z,15.70
2023-04-15T03:45:07.741Z,13.27
2023-04-15T03:48:16.565Z,13.35
2023-04-15T03:51:20.726Z,13.07
2023-04-15T03:54:23.400Z,11.82
2023-04-15T03:57:26.082Z,13.30
2023-04-15T04:00:28.787Z,11.43
2023-04-15T04:03:31.957Z,10.52
2023-04-15T04:06:34.679Z,11.93
2023-04-15T04:09:39.320Z,11.15
2023-04-15T04:12:41.907Z,11.70
2023-04-15T04:15:44.499Z,11.33
2023-04-15T04:18:47.277Z,11.30
2023-04-15T04:21:49.812Z,10.82
2023-04-15T04:24:52.340Z,11.43
2023-04-15T04:27:55.137Z,10.50
2023-04-15T04:30:57.783Z,10.60
2023-04-15T04:34:00.403Z,10.80
2023-04-15T04:37:03.021Z,10.38
2023-04-15T04:40:06.461Z,10.77
2023-04-15T04:43:09.531Z,10.03
2023-04-15T04:46:12.969Z,10.50
2023-04-15T04:49:15.665Z,11.07
2023-04-15T04:52:18.293Z,11.00
2023-04-15T04:55:20.982Z,11.07
2023-04-15T04:58:23.531Z,9.83
2023-04-15T05:01:27.660Z,11.57
2023-04-15T05:04:32.043Z,10.85
2023-04-15T05:07:34.677Z,10.18
2023-04-15T05:10:37.314Z,9.80
2023-04-15T05:13:39.955Z,10.07
2023-04-15T05:16:42.468Z,10.10
2023-04-15T05:19:44.971Z,12.15
2023-04-15T05:22:47.594Z,10.48
2023-04-15T05:25:50.131Z,11.80
2023-04-15T05:28:52.734Z,14.90
2023-04-15T05:31:56.045Z,20.53
2023-04-15T05:34:58.735Z,17.90
2023-04-15T05:38:01.540Z,24.27
2023-04-15T05:41:04.102Z,22.88
2023-04-15T05:44:06.884Z,24.73
2023-04-15T05:47:10.382Z,17.27
2023-04-15T05:50:13.100Z,12.55
2023-04-15T05:53:16.529Z,12.27
2023-04-15T05:56:20.493Z,12.18
2023-04-15T05:59:23.138Z,10.30
2023-04-15T06:02:26.854Z,10.23
2023-04-15T06:05:29.497Z,13.45
2023-04-15T06:08:32.237Z,12.90
2023-04-15T06:11:35.017Z,12.93
2023-04-15T06:14:38.488Z,13.83
2023-04-15T06:17:41.162Z,14.43
2023-04-15T06:20:43.750Z,13.48
2023-04-15T06:23:46.439Z,10.77
2023-04-15T06:26:48.944Z,8.82
2023-04-15T06:29:51.590Z,8.97
2023-04-15T06:32:55.107Z,9.47
2023-04-15T06:35:57.669Z,8.82
2023-04-15T06:39:00.450Z,9.70
2023-04-15T06:42:03.686Z,8.30
2023-04-15T06:45:06.848Z,6.83
2023-04-15T06:48:09.440Z,7.10
2023-04-15T06:51:12.017Z,7.07
2023-04-15T06:54:14.551Z,8.38
2023-04-15T06:57:17.198Z,8.13
2023-04-15T07:00:20.492Z,7.83
2023-04-15T07:03:23.484Z,8.70
2023-04-15T07:06:26.129Z,6.97
2023-04-15T07:09:28.693Z,7.00
2023-04-15T07:12:31.545Z,7.97
2023-04-15T07:15:34.170Z,6.60
2023-04-15T07:18:36.829Z,7.97
2023-04-15T07:21:41.672Z,8.57
2023-04-15T07:24:44.471Z,6.95
2023-04-15T07:27:47.510Z,7.30
2023-04-15T07:30:50.188Z,6.87
2023-04-15T07:33:53.483Z,8.17
2023-04-15T07:36:56.018Z,7.10
2023-04-15T07:39:58.693Z,7.85
2023-04-15T07:43:01.450Z,8.90
2023-04-15T07:46:04.346Z,7.90
2023-04-15T07:49:07.628Z,7.67
2023-04-15T07:52:10.216Z,8.75
2023-04-15T07:55:12.799Z,8.38
2023-04-15T07:58:15.801Z,7.50
2023-04-15T08:01:18.564Z,8.43
2023-04-15T08:04:21.494Z,8.13
2023-04-15T08:07:25.408Z,8.82
2023-04-15T08:10:30.030Z,8.40
2023-04-15T08:13:32.522Z,8.50
2023-04-15T08:16:35.306Z,11.60
2023-04-15T08:19:37.981Z,15.03
2023-04-15T08:22:41.125Z,18.65
2023-04-15T08:25:43.724Z,16.98
2023-04-15T08:28:46.757Z,11.43
2023-04-15T08:31:49.449Z,7.70
2023-04-15T08:34:52.010Z,10.67
2023-04-15T08:37:54.554Z,13.60
2023-04-15T08:40:58.547Z,10.43
2023-04-15T08:44:05.545Z,6.55
2023-04-15T08:47:09.389Z,8.30
2023-04-15T08:50:12.499Z,8.37
2023-04-15T08:53:15.734Z,8.38
2023-04-15T08:56:20.352Z,6.55
2023-04-15T08:59:23.169Z,8.20
2023-04-15T09:02:27.525Z,7.73
2023-04-15T09:05:33.700Z,6.23
2023-04-15T09:08:36.277Z,6.95
2023-04-15T09:11:39.143Z,7.38
2023-04-15T09:14:43.563Z,5.63
2023-04-15T09:17:46.736Z,6.60
2023-04-15T09:20:53.501Z,5.00
2023-04-15T09:23:58.470Z,4.82
2023-04-15T09:27:01.227Z,3.53
2023-04-15T09:30:08.453Z,5.90
2023-04-15T09:33:11.129Z,3.90
2023-04-15T09:36:13.679Z,3.47
2023-04-15T09:39:16.245Z,4.47
2023-04-15T09:42:24.743Z,4.95
2023-04-15T09:45:29.641Z,3.72
2023-04-15T09:48:32.482Z,4.50
2023-04-15T09:51:35.889Z,5.87
2023-04-15T09:54:39.103Z,5.43
2023-04-15T09:57:41.988Z,5.50
2023-04-15T10:00:45.445Z,3.83
2023-04-15T10:03:48.189Z,5.80
2023-04-15T10:06:51.304Z,4.83
2023-04-15T10:09:54.122Z,4.65
2023-04-15T10:12:57.259Z,3.90
2023-04-15T10:16:11.036Z,4.20
2023-04-15T10:19:14.628Z,4.80
2023-04-15T10:22:18.005Z,7.33
2023-04-15T10:25:21.126Z,5.85
2023-04-15T10:28:23.818Z,4.90
2023-04-15T10:31:26.778Z,4.32
2023-04-15T10:34:30.061Z,12.33
2023-04-15T10:37:37.704Z,8.93
2023-04-15T10:40:40.631Z,3.92
2023-04-15T10:44:06.652Z,3.45
2023-04-15T10:47:20.213Z,4.85
2023-04-15T10:50:22.928Z,5.30
2023-04-15T10:53:29.708Z,4.37
2023-04-15T10:56:32.345Z,4.88
2023-04-15T11:00:04.506Z,8.82
2023-04-15T11:03:08.670Z,4.40
2023-04-15T11:06:11.873Z,8.40
2023-04-15T11:09:33.920Z,4.97
2023-04-15T11:12:37.027Z,3.00
2023-04-15T11:15:41.764Z,3.90
2023-04-15T11:18:55.182Z,5.50
2023-04-15T11:21:57.688Z,3.80
2023-04-15T11:25:00.302Z,3.93
2023-04-15T11:28:02.975Z,5.90
2023-04-15T11:31:16.783Z,7.38
2023-04-15T11:34:23.705Z,5.93
2023-04-15T11:37:30.636Z,7.53
2023-04-15T11:40:36.358Z,4.33
2023-04-15T11:43:39.034Z,15.90
2023-04-15T11:46:42.412Z,5.28
2023-04-15T11:49:46.151Z,4.18
2023-04-15T11:52:59.513Z,4.13
2023-04-15T11:56:02.081Z,14.90
2023-04-15T11:59:04.679Z,12.35
2023-04-15T12:02:14.459Z,8.05
2023-04-15T12:05:17.264Z,8.23
2023-04-15T12:08:19.960Z,5.60
2023-04-15T12:11:32.274Z,3.77
2023-04-15T12:14:34.920Z,3.03
2023-04-15T12:17:51.458Z,4.28
2023-04-15T12:20:54.952Z,3.30
2023-04-15T12:23:58.300Z,4.10
2023-04-15T12:27:04.665Z,2.83
2023-04-15T12:30:08.247Z,3.83
2023-04-15T12:33:12.096Z,3.72
2023-04-15T12:36:14.678Z,2.97
2023-04-15T12:39:17.268Z,3.57
2023-04-15T12:42:20.509Z,3.37
2023-04-15T12:45:23.097Z,3.67
2023-04-15T12:48:25.708Z,2.97
2023-04-15T12:51:28.441Z,3.42
2023-04-15T12:54:32.072Z,3.60
2023-04-15T12:57:34.614Z,3.40
2023-04-15T13:00:37.572Z,3.70
2023-04-15T13:03:40.475Z,7.13
2023-04-15T13:06:43.913Z,10.68
2023-04-15T13:09:46.725Z,4.93
2023-04-15T13:12:53.900Z,5.93
2023-04-15T13:15:56.609Z,6.50
2023-04-15T13:19:00.504Z,6.00
2023-04-15T13:22:03.216Z,5.55
2023-04-15T13:25:06.512Z,4.93
2023-04-15T13:28:11.433Z,5.27
2023-04-15T13:31:14.170Z,4.97
2023-04-15T13:34:16.817Z,6.88
2023-04-15T13:37:19.429Z,5.22
2023-04-15T13:40:22.732Z,3.67
2023-04-15T13:43:25.381Z,3.67
2023-04-15T13:46:28.095Z,5.05
2023-04-15T13:49:30.879Z,12.23
2023-04-15T13:52:33.590Z,6.93
2023-04-15T13:55:36.533Z,3.10
2023-04-15T13:58:41.128Z,6.03
2023-04-15T14:01:45.123Z,5.93
2023-04-15T14:04:47.865Z,3.92
2023-04-15T14:07:50.730Z,9.05
2023-04-15T14:10:53.361Z,7.77
2023-04-15T14:13:55.963Z,13.53
2023-04-15T14:16:58.860Z,9.43
2023-04-15T14:20:01.666Z,5.57
2023-04-15T14:23:04.164Z,4.93
2023-04-15T14:26:06.973Z,5.57
2023-04-15T14:29:09.819Z,11.60
2023-04-15T14:32:12.890Z,21.77
2023-04-15T14:35:15.609Z,8.85
2023-04-15T14:38:18.294Z,8.45
2023-04-15T14:41:20.829Z,8.97
2023-04-15T14:44:24.198Z,6.80
2023-04-15T14:47:26.971Z,14.95
2023-04-15T14:50:29.722Z,13.13
2023-04-15T14:53:32.256Z,17.77
2023-04-15T14:56:34.975Z,8.03
2023-04-15T14:59:37.545Z,6.43
2023-04-15T15:02:40.765Z,6.75
2023-04-15T15:05:45.566Z,6.78
2023-04-15T15:08:49.429Z,14.68
2023-04-15T15:11:52.120Z,12.43
2023-04-15T15:14:56.314Z,6.87
2023-04-15T15:17:59.259Z,8.75
2023-04-15T15:21:02.084Z,6.55
2023-04-15T15:24:04.998Z,8.57
2023-04-15T15:27:07.733Z,5.27
2023-04-15T15:30:11.263Z,3.77
2023-04-15T15:33:13.831Z,3.95
2023-04-15T15:36:16.488Z,4.60
2023-04-15T15:39:19.137Z,5.57
2023-04-15T15:42:22.368Z,6.00
2023-04-15T15:45:25.114Z,4.10
2023-04-15T15:48:27.856Z,8.93
2023-04-15T15:51:30.999Z,6.38
2023-04-15T15:54:33.711Z,9.00
2023-04-15T15:57:36.780Z,12.57
2023-04-15T16:00:39.414Z,7.33
2023-04-15T16:03:42.165Z,6.18
2023-04-15T16:06:46.674Z,10.02
2023-04-15T16:09:49.312Z,6.45
2023-04-15T16:12:51.853Z,7.37
2023-04-15T16:15:54.540Z,6.60
2023-04-15T16:19:00.391Z,7.82
2023-04-15T16:22:03.147Z,6.90
2023-04-15T16:25:06.249Z,9.50
2023-04-15T16:28:18.962Z,6.73
2023-04-15T16:31:28.401Z,4.83
2023-04-15T16:34:31.123Z,7.72
2023-04-15T16:37:36.411Z,8.40
2023-04-15T16:40:39.177Z,5.45
2023-04-15T16:43:41.929Z,6.03
2023-04-15T16:46:44.533Z,6.17
2023-04-15T16:49:47.804Z,10.75
2023-04-15T16:52:50.454Z,7.25
2023-04-15T16:55:52.964Z,7.95
2023-04-15T16:58:55.654Z,6.00
2023-04-15T17:01:58.765Z,7.23
2023-04-15T17:05:01.469Z,6.05
2023-04-15T17:08:05.211Z,8.52
2023-04-15T17:11:07.762Z,16.73
2023-04-15T17:14:10.546Z,21.57
2023-04-15T17:17:13.130Z,19.17
2023-04-15T17:20:17.548Z,16.77
2023-04-15T17:23:20.350Z,15.45
2023-04-15T17:26:22.931Z,16.27
2023-04-15T17:29:25.594Z,13.10
2023-04-15T17:32:34.687Z,13.80
2023-04-15T17:35:37.485Z,13.88
2023-04-15T17:38:40.110Z,46.08
2023-04-15T17:41:43.480Z,49.25
2023-04-15T17:44:46.315Z,43.17
2023-04-15T17:47:48.968Z,29.47
2023-04-15T17:50:52.097Z,18.25
2023-04-15T17:53:54.869Z,20.50
2023-04-15T17:56:58.077Z,32.92
2023-04-15T18:00:02.038Z,49.83
2023-04-15T18:03:15.539Z,60.53
2023-04-15T18:06:21.387Z,35.40
2023-04-15T18:09:23.948Z,38.22
2023-04-15T18:12:27.138Z,38.85
2023-04-15T18:15:33.605Z,40.50
2023-04-15T18:18:36.168Z,43.07
2023-04-15T18:21:38.919Z,45.00
2023-04-15T18:24:41.967Z,58.13
2023-04-15T18:27:44.854Z,54.10
2023-04-15T18:30:47.576Z,50.13
2023-04-15T18:33:50.341Z,115.40
2023-04-15T18:36:52.955Z,104.75
2023-04-15T18:39:56.142Z,93.60
2023-04-15T18:42:58.886Z,75.95
2023-04-15T18:46:02.164Z,61.30
2023-04-15T18:49:05.284Z,73.97
2023-04-15T18:52:09.559Z,69.75
2023-04-15T18:55:12.278Z,56.10
2023-04-15T18:58:15.197Z,55.88
2023-04-15T19:01:18.017Z,55.13
2023-04-15T19:04:21.023Z,67.63
2023-04-15T19:07:24.100Z,58.17
2023-04-15T19:10:28.211Z,54.47
2023-04-15T19:13:30.778Z,36.67
2023-04-15T19:16:33.489Z,28.77
2023-04-15T19:19:37.283Z,24.43
2023-04-15T19:22:40.021Z,24.95
2023-04-15T19:25:43.285Z,28.63
2023-04-15T19:28:46.031Z,43.40
2023-04-15T19:31:48.957Z,50.30
2023-04-15T19:34:51.746Z,54.50
2023-04-15T19:37:54.583Z,52.00
2023-04-15T19:40:59.095Z,60.20
2023-04-15T19:44:03.178Z,65.60
2023-04-15T19:47:05.962Z,61.63
2023-04-15T19:50:10.095Z,45.50
2023-04-15T19:53:12.771Z,53.40
2023-04-15T19:56:16.055Z,36.83
2023-04-15T19:59:18.828Z,32.47
2023-04-15T20:02:22.450Z,30.13
2023-04-15T20:05:25.530Z,37.87
2023-04-15T20:08:28.086Z,46.47
2023-04-15T20:12:48.262Z,40.95
2023-04-15T20:14:56.957Z,60.65
2023-04-15T20:17:59.883Z,65.67
2023-04-15T20:21:02.728Z,74.80
2023-04-15T20:24:06.189Z,80.35
2023-04-15T20:27:09.181Z,81.97
2023-04-15T20:30:12.118Z,67.80
2023-04-15T20:33:15.039Z,80.57
2023-04-15T20:36:17.724Z,88.23
2023-04-15T20:39:20.803Z,85.22
2023-04-15T20:42:24.674Z,82.63
2023-04-15T20:45:27.479Z,80.78
2023-04-15T20:48:30.533Z,77.57
2023-04-15T20:51:37.759Z,88.23
2023-04-15T20:54:40.491Z,86.95
2023-04-15T20:57:43.331Z,93.75
2023-04-15T21:00:46.353Z,84.20
2023-04-15T21:03:49.007Z,71.53
2023-04-15T21:06:52.422Z,66.77
2023-04-15T21:09:56.211Z,58.22
2023-04-15T21:12:58.756Z,47.15
2023-04-15T21:16:01.507Z,50.22
2023-04-15T21:19:04.352Z,74.13
2023-04-15T21:22:07.255Z,67.97
2023-04-15T21:25:10.139Z,69.97
2023-04-15T21:28:12.759Z,57.40
2023-04-15T21:31:15.692Z,57.60
2023-04-15T21:34:18.176Z,51.20
2023-04-15T21:37:20.905Z,52.90
2023-04-15T21:40:23.462Z,55.78
2023-04-15T21:43:26.117Z,60.15
2023-04-15T21:46:32.833Z,60.65
2023-04-15T21:49:37.742Z,52.20
2023-04-15T21:52:40.380Z,49.17
2023-04-15T21:55:42.937Z,30.25
2023-04-15T21:58:45.497Z,20.40
2023-04-15T22:01:48.280Z,19.20
2023-04-15T22:04:50.990Z,26.23
2023-04-15T22:07:53.620Z,29.87
2023-04-15T22:10:56.336Z,29.80
2023-04-15T22:13:59.399Z,29.60
2023-04-15T22:17:02.011Z,27.08
2023-04-15T22:20:04.949Z,27.93
2023-04-15T22:23:10.470Z,32.03
2023-04-15T22:26:13.158Z,33.85
2023-04-15T22:29:15.756Z,34.80
2023-04-15T22:32:18.405Z,32.45
2023-04-15T22:35:21.038Z,35.67
2023-04-15T22:38:24.536Z,39.00
2023-04-15T22:41:27.389Z,36.40
2023-04-15T22:44:29.999Z,33.47
2023-04-15T22:47:32.583Z,35.30
2023-04-15T22:50:37.741Z,29.93
2023-04-15T22:53:40.388Z,32.57
2023-04-15T22:56:42.972Z,35.78
2023-04-15T22:59:45.698Z,31.88
2023-04-15T23:02:48.372Z,33.47
2023-04-15T23:05:52.258Z,32.60
2023-04-15T23:08:54.848Z,34.23
2023-04-15T23:11:57.556Z,37.50
2023-04-15T23:15:00.154Z,40.15
2023-04-15T23:18:02.743Z,39.20
2023-04-15T23:21:05.486Z,34.73
2023-04-15T23:24:08.086Z,26.57
2023-04-15T23:27:10.712Z,27.17
2023-04-15T23:30:13.426Z,24.92
2023-04-15T23:33:16.073Z,26.17
2023-04-15T23:36:18.835Z,29.10
2023-04-15T23:39:21.612Z,31.87
2023-04-15T23:42:24.845Z,36.28
2023-04-15T23:45:27.494Z,32.75
2023-04-15T23:48:30.319Z,28.15
2023-04-15T23:51:32.886Z,27.10
2023-04-15T23:54:35.519Z,24.27
2023-04-15T23:57:38.048Z,24.85
